createdAt,value
2024-02-06T00:06:01.153Z,2.83
2024-02-06T00:26:14.083Z,2.72
2024-02-06T00:36:26.192Z,2.83
2024-02-06T00:46:30.698Z,2.00
2024-02-06T00:56:34.066Z,2.50
2024-02-06T01:06:36.545Z,3.85
2024-02-06T01:16:38.637Z,2.17
2024-02-06T01:26:41.713Z,3.38
2024-02-06T01:36:53.675Z,2.40
2024-02-06T01:46:58.334Z,2.47
2024-02-06T01:57:02.933Z,4.45
2024-02-06T02:07:08.028Z,3.60
2024-02-06T02:17:09.972Z,3.20
2024-02-06T02:27:15.416Z,3.00
2024-02-06T02:37:18.342Z,4.10
2024-02-06T02:47:20.672Z,7.22
2024-02-06T02:57:23.689Z,6.95
2024-02-06T03:07:25.658Z,7.22
2024-02-06T03:17:33.415Z,8.45
2024-02-06T03:27:40.389Z,9.23
2024-02-06T03:37:42.492Z,8.00
2024-02-06T03:47:44.828Z,6.85
2024-02-06T03:57:50.054Z,5.15
2024-02-06T04:07:52.386Z,3.58
2024-02-06T04:18:01.425Z,4.20
2024-02-06T04:28:03.482Z,8.50
2024-02-06T04:38:09.352Z,11.57
2024-02-06T04:48:11.209Z,13.88
2024-02-06T04:58:13.556Z,13.93
2024-02-06T05:08:15.428Z,15.02
2024-02-06T05:18:18.435Z,14.70
2024-02-06T05:28:21.912Z,13.23
2024-02-06T05:38:24.357Z,12.90
2024-02-06T05:48:29.044Z,13.82
2024-02-06T05:58:32.815Z,12.77
2024-02-06T06:08:38.513Z,11.40
2024-02-06T06:18:41.548Z,12.82
2024-02-06T06:28:43.719Z,13.83
2024-02-06T06:38:45.629Z,13.95
2024-02-06T06:48:48.640Z,13.25
2024-02-06T06:58:51.474Z,14.10
2024-02-06T07:08:55.994Z,14.47
2024-02-06T07:18:58.983Z,16.65
2024-02-06T07:29:01.262Z,14.83
2024-02-06T07:39:05.134Z,13.88
2024-02-06T07:49:07.129Z,14.10
2024-02-06T07:59:12.893Z,13.35
2024-02-06T08:09:15.060Z,15.52
2024-02-06T08:19:19.544Z,13.65
2024-02-06T08:29:41.156Z,13.68
2024-02-06T08:39:43.128Z,15.90
2024-02-06T08:49:45.118Z,13.40
2024-02-06T08:59:52.179Z,14.50
2024-02-06T09:09:58.006Z,15.23
2024-02-06T09:20:00.291Z,14.50
2024-02-06T09:30:13.333Z,13.17
2024-02-06T09:40:21.586Z,14.43
2024-02-06T09:50:23.621Z,12.52
2024-02-06T10:00:27.746Z,13.23
2024-02-06T10:10:31.827Z,11.30
2024-02-06T10:20:48.719Z,10.88
2024-02-06T10:30:54.089Z,9.75
2024-02-06T10:41:06.023Z,11.55
2024-02-06T10:51:28.427Z,10.00
2024-02-06T11:01:43.787Z,8.90
2024-02-06T11:11:46.839Z,7.20
2024-02-06T11:21:57.492Z,6.47
2024-02-06T11:32:03.041Z,5.20
2024-02-06T11:42:04.983Z,4.60
2024-02-06T11:52:09.325Z,4.65
2024-02-06T12:02:12.888Z,2.70
2024-02-06T12:12:23.545Z,2.80
2024-02-06T12:22:25.397Z,3.95
2024-02-06T12:32:27.581Z,3.60
2024-02-06T12:42:29.465Z,4.18
2024-02-06T12:52:31.301Z,3.60
2024-02-06T13:02:35.516Z,3.08
2024-02-06T13:12:47.900Z,3.08
2024-02-06T13:22:52.371Z,2.60
2024-02-06T13:32:54.273Z,2.47
2024-02-06T13:42:56.164Z,2.22
2024-02-06T13:53:02.455Z,2.10
2024-02-06T14:03:11.728Z,2.70
2024-02-06T14:13:19.076Z,1.90
2024-02-06T14:23:24.977Z,1.80
2024-02-06T14:33:29.120Z,1.17
2024-02-06T14:43:32.590Z,0.80
2024-02-06T14:53:36.908Z,0.70
2024-02-06T15:03:41.252Z,0.98
2024-02-06T15:13:43.418Z,1.10
2024-02-06T15:23:47.023Z,1.15
2024-02-06T15:33:54.093Z,1.02
2024-02-06T15:43:57.172Z,1.08
2024-02-06T15:54:00.718Z,1.00
2024-02-06T16:04:04.862Z,0.90
2024-02-06T16:14:07.832Z,1.20
2024-02-06T16:24:12.087Z,1.20
2024-02-06T16:34:15.006Z,0.77
2024-02-06T16:44:24.803Z,1.25
2024-02-06T16:54:29.544Z,0.90
2024-02-06T17:04:31.499Z,1.05
2024-02-06T17:14:35.248Z,1.73
2024-02-06T17:24:37.756Z,1.73
2024-02-06T17:34:41.496Z,2.03
2024-02-06T17:44:50.054Z,1.20
2024-02-06T17:54:51.954Z,1.40
2024-02-06T18:04:56.229Z,1.50
2024-02-06T18:14:58.425Z,1.40
2024-02-06T18:25:01.897Z,2.50
2024-02-06T18:35:04.139Z,2.45
2024-02-06T18:45:06.613Z,1.47
2024-02-06T18:55:13.842Z,1.27
2024-02-06T19:05:16.041Z,1.40
2024-02-06T19:15:18.405Z,1.87
2024-02-06T19:25:21.607Z,1.77
2024-02-06T19:35:23.691Z,1.60
2024-02-06T19:45:25.502Z,1.00
2024-02-06T19:55:28.068Z,1.85
2024-02-06T20:05:29.962Z,1.60
2024-02-06T20:15:34.463Z,1.55
2024-02-06T20:25:36.403Z,1.52
2024-02-06T20:35:38.532Z,1.30
2024-02-06T20:45:42.724Z,1.60
2024-02-06T20:55:44.599Z,1.58
2024-02-06T21:05:47.327Z,2.00
2024-02-06T21:15:49.342Z,2.10
2024-02-06T21:25:51.807Z,1.58
2024-02-06T21:35:53.642Z,1.30
2024-02-06T21:45:56.071Z,1.48
2024-02-06T21:56:08.261Z,1.53
2024-02-06T22:06:17.443Z,1.60
2024-02-06T22:16:21.674Z,1.77
2024-02-06T22:26:25.208Z,1.30
2024-02-06T22:36:28.630Z,1.20
2024-02-06T22:46:30.531Z,1.23
2024-02-06T22:56:32.353Z,1.60
2024-02-06T23:06:36.052Z,1.52
2024-02-06T23:16:38.356Z,2.67
2024-02-06T23:26:40.230Z,1.20
2024-02-06T23:36:42.052Z,1.35
2024-02-06T23:46:43.890Z,1.40
2024-02-06T23:56:45.786Z,2.55
